Terminal Aerodrome Forecast
Issued by NWS

Home | Current Version | Previous Version | Graphics & Text | Print | Product List | Glossary On
Versions: 1 2 3 4 5 6 7 8 9 10 11 12 13 14 15 16 17 18 19
611
FTUS43 KGRB 240520
TAFCWA
TAF
KCWA 240520Z 2406/2506 15008KT P6SM OVC025 WS018/23040KT
      TEMPO 2406/2409 4SM -RA BR OVC015
     FM240900 VRB03KT 2SM -RA BR OVC007
     FM241400 05008KT 1 1/2SM RA BR OVC003
     FM242100 05008KT 2SM -SHRA BR OVC003
     FM250400 05009KT 4SM BR OVC007
      AMD LTD TO CLD VIS AND WIND TIL 241100=

USA.gov is the U.S. government's official web portal to all federal, state and local government web resources and services.